createdAt,value
2018-09-16T00:01:56.452Z,60.50
2018-09-16T00:04:24.947Z,60.40
2018-09-16T00:06:53.517Z,60.50
2018-09-16T00:09:22.019Z,60.50
2018-09-16T00:11:50.534Z,60.50
2018-09-16T00:14:19.145Z,60.60
2018-09-16T00:16:48.480Z,60.60
2018-09-16T00:19:17.046Z,60.40
2018-09-16T00:21:45.570Z,60.30
2018-09-16T00:24:14.068Z,60.30
2018-09-16T00:26:42.581Z,60.20
2018-09-16T00:29:11.071Z,60.40
2018-09-16T00:31:39.652Z,60.40
2018-09-16T00:34:08.199Z,60.30
2018-09-16T00:36:36.734Z,60.70
2018-09-16T00:39:07.984Z,60.70
2018-09-16T00:41:36.754Z,60.60
2018-09-16T00:44:05.328Z,60.50
2018-09-16T00:46:33.870Z,60.50
2018-09-16T00:49:02.360Z,60.80
2018-09-16T00:51:30.877Z,60.70
2018-09-16T00:53:59.369Z,60.80
2018-09-16T00:56:27.883Z,60.90
2018-09-16T00:58:56.375Z,60.80
2018-09-16T01:01:24.900Z,60.80
2018-09-16T01:03:53.392Z,60.90
2018-09-16T01:06:27.260Z,60.80
2018-09-16T01:08:55.746Z,60.80
2018-09-16T01:11:24.286Z,60.80
2018-09-16T01:13:52.818Z,60.70
2018-09-16T01:16:21.395Z,61.00
2018-09-16T01:18:49.982Z,61.20
2018-09-16T01:21:45.683Z,60.80
2018-09-16T05:48:36.391Z,97.30
2018-09-16T06:52:50.458Z,96.10
2018-09-16T06:55:18.986Z,96.20
2018-09-16T06:57:47.631Z,96.10
2018-09-16T07:00:16.318Z,96.20
2018-09-16T07:02:45.097Z,96.40
2018-09-16T07:05:13.748Z,96.50
2018-09-16T07:07:42.254Z,96.60
2018-09-16T07:10:10.779Z,97.00
2018-09-16T07:12:39.270Z,96.70
2018-09-16T07:15:07.899Z,91.10
2018-09-16T07:17:36.413Z,91.60
2018-09-16T07:20:05.246Z,95.00
2018-09-16T07:22:33.768Z,97.60
2018-09-16T07:25:02.317Z,97.70
2018-09-16T07:27:30.858Z,97.90
2018-09-16T07:29:59.385Z,98.40
2018-09-16T07:32:27.899Z,98.20
2018-09-16T07:34:56.453Z,98.40
2018-09-16T07:37:24.947Z,98.60
2018-09-16T07:39:53.464Z,98.70
2018-09-16T07:42:21.967Z,99.00
2018-09-16T07:44:50.603Z,99.20
2018-09-16T07:47:19.149Z,99.60
2018-09-16T07:49:47.658Z,99.70
2018-09-16T07:52:16.183Z,99.90
2018-09-16T07:54:44.722Z,99.90
2018-09-16T07:57:13.242Z,99.90
2018-09-16T07:59:41.748Z,99.90
2018-09-16T08:02:10.321Z,99.90
2018-09-16T08:04:38.817Z,99.90
2018-09-16T08:07:07.409Z,99.90
2018-09-16T08:36:48.895Z,99.90
2018-09-16T08:39:17.433Z,86.80
2018-09-16T08:41:45.965Z,85.70
2018-09-16T08:44:14.469Z,85.30
2018-09-16T08:46:43.006Z,84.30
2018-09-16T08:49:11.519Z,84.40
2018-09-16T08:51:40.078Z,83.90
2018-09-16T08:54:08.626Z,83.70
2018-09-16T08:56:37.153Z,83.10
2018-09-16T08:59:05.779Z,83.50
2018-09-16T09:01:34.307Z,83.20
2018-09-16T09:04:02.845Z,83.00
2018-09-16T09:06:31.384Z,82.90
2018-09-16T09:08:59.898Z,82.60
2018-09-16T09:11:28.510Z,82.80
2018-09-16T09:13:57.031Z,83.00
2018-09-16T09:16:25.560Z,83.00
2018-09-16T09:18:54.097Z,82.80
2018-09-16T09:21:22.646Z,82.60
2018-09-16T09:23:51.146Z,82.60
2018-09-16T09:26:19.677Z,82.60
2018-09-16T09:28:48.350Z,82.70
2018-09-16T09:31:16.909Z,82.80
2018-09-16T09:33:45.415Z,82.60
2018-09-16T09:36:13.926Z,82.40
2018-09-16T09:38:42.422Z,81.30
2018-09-16T09:41:11.316Z,82.20
2018-09-16T09:43:39.894Z,82.40
2018-09-16T09:46:08.920Z,81.90
2018-09-16T09:48:37.716Z,81.90
2018-09-16T09:51:06.235Z,82.30
2018-09-16T09:53:34.746Z,82.30
2018-09-16T09:56:03.254Z,81.80
2018-09-16T09:58:31.762Z,81.70
2018-09-16T10:01:00.252Z,82.00
2018-09-16T10:03:28.798Z,82.00
2018-09-16T10:05:57.340Z,82.30
2018-09-16T10:08:25.829Z,81.20
2018-09-16T10:10:54.326Z,80.70
2018-09-16T10:13:22.853Z,80.50
2018-09-16T10:15:51.342Z,80.40
2018-09-16T10:18:19.854Z,80.80
2018-09-16T10:20:48.335Z,81.10
2018-09-16T10:23:16.857Z,82.00
2018-09-16T10:25:45.351Z,81.90
2018-09-16T10:28:13.900Z,82.00
2018-09-16T10:30:42.402Z,85.10
2018-09-16T10:33:10.909Z,85.50
2018-09-16T10:35:39.498Z,88.80
2018-09-16T10:38:08.035Z,89.50
2018-09-16T10:40:36.551Z,89.90
2018-09-16T10:43:05.095Z,87.40
2018-09-16T10:45:33.646Z,87.50
2018-09-16T10:48:02.178Z,88.60
2018-09-16T10:50:30.795Z,90.10
2018-09-16T10:52:59.331Z,90.00
2018-09-16T10:55:27.857Z,90.70
2018-09-16T10:57:56.409Z,90.90
2018-09-16T11:00:24.991Z,90.10
2018-09-16T11:02:53.527Z,88.80
2018-09-16T11:05:22.166Z,84.90
2018-09-16T11:07:50.785Z,83.20
2018-09-16T11:10:19.257Z,79.10
2018-09-16T11:12:47.800Z,74.40
2018-09-16T11:15:17.732Z,73.20
2018-09-16T11:17:46.256Z,73.90
2018-09-16T11:20:14.783Z,73.40
2018-09-16T11:22:43.330Z,73.30
2018-09-16T11:25:11.843Z,73.30
2018-09-16T11:27:40.365Z,74.10
2018-09-16T11:30:08.990Z,74.60
2018-09-16T11:32:37.543Z,75.50
2018-09-16T11:35:06.416Z,82.30
2018-09-16T11:37:35.034Z,84.80
2018-09-16T11:40:03.764Z,87.70
2018-09-16T11:42:32.278Z,86.10
2018-09-16T11:45:00.822Z,87.70
2018-09-16T11:47:29.414Z,87.50
2018-09-16T11:49:58.101Z,87.80
2018-09-16T11:52:26.890Z,86.50
2018-09-16T11:54:55.582Z,85.70
2018-09-16T11:57:24.126Z,85.50
2018-09-16T11:59:52.699Z,85.00
2018-09-16T12:02:21.562Z,85.60
2018-09-16T12:04:50.111Z,85.50
2018-09-16T12:07:19.918Z,85.60
2018-09-16T12:09:48.623Z,86.10
2018-09-16T12:12:17.140Z,85.80
2018-09-16T12:14:45.670Z,85.80
2018-09-16T12:17:14.207Z,85.60
2018-09-16T12:19:42.729Z,85.10
2018-09-16T12:22:11.251Z,85.50
2018-09-16T12:24:39.791Z,86.80
2018-09-16T12:27:08.351Z,86.10
2018-09-16T12:29:36.897Z,86.50
2018-09-16T12:32:05.514Z,86.90
2018-09-16T12:34:34.483Z,87.30
2018-09-16T12:37:03.079Z,86.50
2018-09-16T12:39:31.656Z,87.60
2018-09-16T12:42:00.165Z,88.50
2018-09-16T12:44:28.694Z,88.40
2018-09-16T12:46:57.220Z,89.20
2018-09-16T12:49:25.779Z,90.30
2018-09-16T12:51:54.360Z,91.80
2018-09-16T12:54:22.901Z,94.60
2018-09-16T12:56:51.460Z,95.00
2018-09-16T12:59:20.007Z,88.50
2018-09-16T13:01:48.613Z,83.50
2018-09-16T13:04:17.198Z,83.90
2018-09-16T13:06:45.779Z,83.40
2018-09-16T13:09:14.333Z,83.80
2018-09-16T13:11:42.859Z,84.10
2018-09-16T13:14:11.485Z,83.90
2018-09-16T13:16:40.013Z,84.50
2018-09-16T13:19:08.742Z,84.60
2018-09-16T13:21:37.249Z,84.90
2018-09-16T13:24:06.150Z,85.60
2018-09-16T13:26:34.923Z,86.10
2018-09-16T13:29:03.470Z,89.50
2018-09-16T13:31:31.985Z,89.90
2018-09-16T13:34:00.743Z,90.60
2018-09-16T13:36:29.283Z,90.20
2018-09-16T13:38:57.865Z,90.50
2018-09-16T13:41:26.401Z,90.80
2018-09-16T13:43:54.941Z,91.10
2018-09-16T13:46:23.484Z,92.40
2018-09-16T13:48:51.978Z,91.90
2018-09-16T13:51:20.589Z,96.00
2018-09-16T13:53:49.040Z,95.10
2018-09-16T13:56:17.592Z,94.90
2018-09-16T13:58:46.170Z,94.40
2018-09-16T14:01:14.724Z,94.30
2018-09-16T14:03:43.467Z,91.10
2018-09-16T14:06:12.636Z,87.40
2018-09-16T14:08:41.138Z,87.10
2018-09-16T14:11:09.651Z,87.10
2018-09-16T14:13:38.263Z,85.70
2018-09-16T14:16:06.864Z,85.80
2018-09-16T14:18:35.638Z,86.30
2018-09-16T14:21:04.295Z,86.00
2018-09-16T14:23:32.779Z,86.60
2018-09-16T14:26:01.627Z,87.50
2018-09-16T14:28:30.309Z,88.40
2018-09-16T14:30:59.254Z,95.90
2018-09-16T14:33:28.470Z,95.20
2018-09-16T14:35:57.810Z,91.40
2018-09-16T14:38:26.609Z,93.30
2018-09-16T14:40:55.879Z,88.10
2018-09-16T14:43:24.503Z,87.30
2018-09-16T14:45:53.034Z,87.60
2018-09-16T14:48:21.709Z,87.60
2018-09-16T14:50:51.191Z,87.80
2018-09-16T14:53:19.889Z,85.60
2018-09-16T14:55:48.541Z,85.80
2018-09-16T14:58:17.029Z,85.80
2018-09-16T15:00:45.628Z,86.90
2018-09-16T15:03:14.838Z,86.60
2018-09-16T15:05:43.525Z,85.90
2018-09-16T15:08:16.936Z,86.40
2018-09-16T15:10:46.681Z,87.30
2018-09-16T15:13:16.018Z,87.50
2018-09-16T15:15:44.691Z,89.50
2018-09-16T15:18:13.389Z,95.70
2018-09-16T15:20:41.926Z,95.90
2018-09-16T15:23:10.418Z,93.80
2018-09-16T15:25:38.921Z,92.60
2018-09-16T15:28:07.408Z,88.40
2018-09-16T15:30:35.950Z,88.80
2018-09-16T15:33:04.449Z,89.70
2018-09-16T15:35:32.997Z,88.90
2018-09-16T15:38:01.644Z,90.00
2018-09-16T15:40:30.383Z,95.40
2018-09-16T15:42:58.899Z,89.00
2018-09-16T15:45:27.388Z,87.50
2018-09-16T15:47:55.903Z,88.00
2018-09-16T15:50:24.409Z,87.60
2018-09-16T15:52:52.927Z,87.70
2018-09-16T15:55:21.555Z,86.60
2018-09-16T15:57:50.075Z,87.70
2018-09-16T16:00:18.809Z,87.00
2018-09-16T16:02:47.502Z,86.30
2018-09-16T16:05:15.996Z,87.30
2018-09-16T16:07:44.485Z,85.40
2018-09-16T16:10:12.986Z,87.30
2018-09-16T16:12:41.514Z,88.40
2018-09-16T16:15:10.043Z,88.90
2018-09-16T16:17:38.582Z,88.90
2018-09-16T16:20:07.182Z,88.90
2018-09-16T16:22:35.936Z,90.00
2018-09-16T16:25:04.864Z,86.90
2018-09-16T16:27:33.375Z,86.20
2018-09-16T16:30:01.870Z,87.60
2018-09-16T16:32:30.377Z,87.10
2018-09-16T16:34:58.977Z,89.20
2018-09-16T16:37:27.502Z,90.90
2018-09-16T16:39:56.002Z,90.90
2018-09-16T16:42:24.549Z,88.30
2018-09-16T16:44:53.073Z,90.60
2018-09-16T16:47:21.628Z,90.90
2018-09-16T16:49:50.133Z,86.90
2018-09-16T16:52:18.718Z,87.80
2018-09-16T16:54:47.298Z,90.70
2018-09-16T16:57:15.838Z,91.30
2018-09-16T16:59:44.354Z,88.60
2018-09-16T17:02:12.955Z,91.80
2018-09-16T17:04:41.519Z,91.60
2018-09-16T17:07:10.106Z,91.00
2018-09-16T17:09:38.623Z,91.60
2018-09-16T17:12:07.208Z,91.90
2018-09-16T17:14:35.708Z,90.70
2018-09-16T17:17:04.271Z,92.10
2018-09-16T17:19:33.547Z,91.70
2018-09-16T17:22:02.080Z,90.00
2018-09-16T17:24:30.594Z,89.40
2018-09-16T17:26:59.130Z,88.80
2018-09-16T17:29:27.626Z,87.60
2018-09-16T17:31:56.162Z,85.30
2018-09-16T17:34:24.725Z,86.40
2018-09-16T17:36:53.425Z,86.90
2018-09-16T17:39:22.013Z,89.10
2018-09-16T17:41:50.561Z,90.20
2018-09-16T17:44:19.079Z,88.10
2018-09-16T17:46:47.749Z,87.00
2018-09-16T17:49:16.431Z,88.30
2018-09-16T17:51:44.939Z,90.00
2018-09-16T17:54:13.555Z,87.90
2018-09-16T17:56:42.213Z,88.80
2018-09-16T17:59:10.723Z,86.30
2018-09-16T18:01:39.206Z,84.60
2018-09-16T18:04:07.747Z,87.30
2018-09-16T18:06:36.226Z,90.00
2018-09-16T18:09:07.852Z,90.80
2018-09-16T18:11:36.743Z,91.00
2018-09-16T18:14:05.275Z,90.80
2018-09-16T18:16:33.787Z,90.30
2018-09-16T18:19:02.496Z,90.70
2018-09-16T18:21:31.018Z,90.70
2018-09-16T18:23:59.608Z,91.40
2018-09-16T18:26:28.094Z,88.00
2018-09-16T18:28:56.614Z,90.60
2018-09-16T18:31:25.314Z,87.70
2018-09-16T18:33:53.820Z,89.10
2018-09-16T18:36:22.447Z,88.00
2018-09-16T18:38:51.091Z,88.70
2018-09-16T18:41:19.651Z,87.90
2018-09-16T18:43:48.204Z,90.20
2018-09-16T18:46:16.814Z,89.40
2018-09-16T18:48:45.346Z,88.20
2018-09-16T18:51:13.842Z,86.80
2018-09-16T18:53:42.813Z,87.00
2018-09-16T18:56:11.317Z,88.40
2018-09-16T18:58:39.858Z,89.20
2018-09-16T19:01:08.343Z,90.00
2018-09-16T19:03:36.877Z,88.20
2018-09-16T19:06:05.446Z,89.90
2018-09-16T19:08:36.154Z,91.10
2018-09-16T19:11:05.876Z,92.00
2018-09-16T19:13:34.437Z,92.60
2018-09-16T19:16:02.976Z,92.30
2018-09-16T19:18:31.533Z,91.40
2018-09-16T19:21:00.107Z,96.50
2018-09-16T19:23:28.642Z,88.80
2018-09-16T19:25:57.152Z,86.10
2018-09-16T19:28:25.954Z,86.90
2018-09-16T19:30:54.445Z,85.70
2018-09-16T19:33:23.066Z,86.30
2018-09-16T19:35:51.615Z,84.80
2018-09-16T19:38:20.179Z,85.20
2018-09-16T19:40:48.735Z,85.90
2018-09-16T19:43:17.261Z,85.00
2018-09-16T19:45:45.932Z,86.00
2018-09-16T19:48:14.838Z,84.60
2018-09-16T19:50:43.530Z,82.70
2018-09-16T19:53:12.079Z,83.80
2018-09-16T19:55:40.723Z,84.00
2018-09-16T19:58:09.385Z,84.00
2018-09-16T20:00:37.938Z,84.10
2018-09-16T20:03:06.531Z,83.30
2018-09-16T20:05:35.072Z,85.90
2018-09-16T20:08:03.589Z,85.80
2018-09-16T20:10:32.115Z,85.10
2018-09-16T20:13:00.639Z,84.30
2018-09-16T20:15:29.654Z,83.40
2018-09-16T20:17:58.181Z,83.40
2018-09-16T20:20:26.911Z,84.20
2018-09-16T20:22:55.413Z,85.00
2018-09-16T20:25:24.015Z,85.30
2018-09-16T20:27:52.605Z,85.20
2018-09-16T20:30:21.150Z,83.40
2018-09-16T20:32:49.676Z,83.60
2018-09-16T20:35:18.436Z,82.90
2018-09-16T20:37:47.009Z,82.70
2018-09-16T20:40:15.653Z,83.40
2018-09-16T20:42:44.166Z,83.20
2018-09-16T20:45:13.483Z,83.40
2018-09-16T20:47:42.000Z,84.70
2018-09-16T20:50:10.563Z,85.10
2018-09-16T20:52:39.137Z,84.20
2018-09-16T20:55:07.670Z,82.80
2018-09-16T20:57:36.538Z,82.60
2018-09-16T21:00:05.644Z,82.60
2018-09-16T21:02:34.198Z,82.90
2018-09-16T21:05:02.782Z,83.20
2018-09-16T21:07:31.377Z,84.10
2018-09-16T21:10:00.415Z,82.90
2018-09-16T21:12:28.955Z,83.60
2018-09-16T21:14:57.488Z,84.70
2018-09-16T21:17:26.033Z,84.90
2018-09-16T21:19:54.741Z,83.70
2018-09-16T21:22:23.256Z,83.30
2018-09-16T21:24:51.780Z,83.20
2018-09-16T21:27:20.306Z,83.20
2018-09-16T21:29:48.907Z,83.00
2018-09-16T21:32:17.515Z,83.30
2018-09-16T21:34:45.998Z,83.30
2018-09-16T21:37:14.519Z,83.80
2018-09-16T21:39:43.471Z,84.00
2018-09-16T21:42:11.986Z,84.00
2018-09-16T21:44:40.475Z,83.90
2018-09-16T21:47:09.007Z,83.50
2018-09-16T21:49:37.569Z,83.50
2018-09-16T21:52:06.122Z,83.90
2018-09-16T21:54:34.602Z,84.30
2018-09-16T21:57:03.113Z,84.70
2018-09-16T21:59:31.732Z,84.70
2018-09-16T22:02:00.238Z,84.50
2018-09-16T22:04:28.727Z,84.20
2018-09-16T22:06:57.251Z,84.60
2018-09-16T22:09:25.754Z,84.50
2018-09-16T22:11:55.015Z,84.50
2018-09-16T22:14:23.538Z,84.50
2018-09-16T22:16:52.037Z,84.70
2018-09-16T22:19:20.817Z,84.10
2018-09-16T22:21:49.311Z,84.00
2018-09-16T22:24:17.837Z,84.20
2018-09-16T22:26:46.319Z,84.20
2018-09-16T22:29:14.831Z,84.20
2018-09-16T22:31:43.435Z,84.40
2018-09-16T22:34:11.997Z,84.40
2018-09-16T22:36:40.528Z,84.40
2018-09-16T22:39:09.911Z,84.40
2018-09-16T22:41:38.435Z,84.80
2018-09-16T22:44:06.986Z,84.70
2018-09-16T22:46:35.496Z,85.40
2018-09-16T22:49:04.036Z,85.50
2018-09-16T22:51:32.566Z,85.30
2018-09-16T22:54:01.199Z,85.40
2018-09-16T22:56:29.730Z,85.20
2018-09-16T22:58:58.370Z,85.20
2018-09-16T23:01:27.009Z,85.10
2018-09-16T23:03:55.546Z,85.60
2018-09-16T23:06:24.058Z,86.40
2018-09-16T23:08:57.842Z,85.80
2018-09-16T23:11:26.351Z,85.70
2018-09-16T23:13:54.977Z,85.80
2018-09-16T23:16:23.501Z,85.60
2018-09-16T23:18:52.060Z,85.90
2018-09-16T23:21:20.637Z,86.00
2018-09-16T23:23:49.178Z,86.00
2018-09-16T23:26:17.747Z,86.10
2018-09-16T23:28:46.530Z,85.90
2018-09-16T23:31:15.046Z,85.70
2018-09-16T23:33:43.586Z,86.50
2018-09-16T23:36:12.108Z,86.60
2018-09-16T23:38:40.646Z,85.80
2018-09-16T23:41:09.143Z,86.30
2018-09-16T23:43:37.629Z,86.20
2018-09-16T23:46:06.384Z,86.20
2018-09-16T23:48:34.870Z,86.20
2018-09-16T23:51:03.423Z,86.30
2018-09-16T23:53:32.123Z,86.40
2018-09-16T23:56:00.666Z,86.60
2018-09-16T23:58:29.157Z,86.80
